createdAt,value
2023-03-10T00:02:02.562Z,64.10
2023-03-10T00:07:28.465Z,64.20
2023-03-10T00:10:16.876Z,63.30
2023-03-10T00:12:59.945Z,64.00
2023-03-10T00:15:42.929Z,62.70
2023-03-10T00:18:26.048Z,66.30
2023-03-10T00:21:14.453Z,67.50
2023-03-10T00:23:58.449Z,63.40
2023-03-10T00:26:41.368Z,63.00
2023-03-10T00:29:24.907Z,66.90
2023-03-10T00:32:07.937Z,61.60
2023-03-10T00:34:51.796Z,70.20
2023-03-10T00:37:38.256Z,65.30
2023-03-10T00:40:21.264Z,66.10
2023-03-10T00:43:04.117Z,65.80
2023-03-10T00:45:47.525Z,63.10
2023-03-10T00:48:31.598Z,73.20
2023-03-10T00:51:14.857Z,65.80
2023-03-10T00:54:00.006Z,70.60
2023-03-10T00:56:42.938Z,76.40
2023-03-10T00:59:25.875Z,67.00
2023-03-10T01:02:08.971Z,76.30
2023-03-10T01:04:51.835Z,70.50
2023-03-10T01:10:18.234Z,73.80
2023-03-10T01:13:01.176Z,75.70
2023-03-10T01:15:44.785Z,77.30
2023-03-10T01:18:27.775Z,74.30
2023-03-10T01:21:23.292Z,79.00
2023-03-10T01:24:07.182Z,77.50
2023-03-10T01:26:50.254Z,79.30
2023-03-10T01:29:33.154Z,84.90
2023-03-10T01:32:16.037Z,84.50
2023-03-10T01:35:00.244Z,80.40
2023-03-10T01:37:44.545Z,80.00
2023-03-10T01:40:27.789Z,89.30
2023-03-10T01:43:19.586Z,77.70
2023-03-10T01:46:02.699Z,76.30
2023-03-10T01:48:46.568Z,81.90
2023-03-10T01:51:34.656Z,81.40
2023-03-10T01:54:22.699Z,81.60
2023-03-10T01:57:06.282Z,82.00
2023-03-10T01:59:51.722Z,77.90
2023-03-10T02:03:15.029Z,77.00
2023-03-10T02:07:01.142Z,71.90
2023-03-10T02:10:40.631Z,79.60
2023-03-10T02:13:26.545Z,68.50
2023-03-10T02:17:00.492Z,71.40
2023-03-10T02:20:52.817Z,74.80
2023-03-10T02:24:32.405Z,75.30
2023-03-10T02:28:26.003Z,77.90
2023-03-10T02:32:13.496Z,80.00
2023-03-10T02:35:51.528Z,75.20
2023-03-10T02:39:42.565Z,72.30
2023-03-10T02:42:48.782Z,70.40
2023-03-10T02:46:20.254Z,69.00
2023-03-10T02:49:45.092Z,79.50
2023-03-10T02:53:33.487Z,69.50
2023-03-10T02:57:07.918Z,71.30
2023-03-10T03:00:48.078Z,71.40
2023-03-10T03:03:54.869Z,66.20
2023-03-10T03:07:23.969Z,74.20
2023-03-10T03:10:59.839Z,75.20
2023-03-10T03:15:03.701Z,71.10
2023-03-10T03:18:08.141Z,64.70
2023-03-10T03:21:57.573Z,69.80
2023-03-10T03:25:42.475Z,64.30
2023-03-10T03:29:01.203Z,64.10
2023-03-10T03:32:10.437Z,67.40
2023-03-10T03:35:47.298Z,63.20
2023-03-10T03:39:39.745Z,64.30
2023-03-10T03:43:43.813Z,62.20
2023-03-10T03:47:11.373Z,63.40
2023-03-10T03:50:50.311Z,60.90
2023-03-10T03:54:42.386Z,67.60
2023-03-10T03:58:11.971Z,64.40
2023-03-10T04:01:32.807Z,66.40
2023-03-10T04:04:53.544Z,65.30
2023-03-10T04:08:28.344Z,70.80
2023-03-10T04:11:48.867Z,68.80
2023-03-10T04:14:57.453Z,67.00
2023-03-10T04:18:10.763Z,61.90
2023-03-10T04:21:20.655Z,67.20
2023-03-10T04:24:27.723Z,73.70
2023-03-10T04:28:05.947Z,75.40
2023-03-10T04:31:32.737Z,77.10
2023-03-10T04:34:36.400Z,73.90
2023-03-10T04:37:44.901Z,71.70
2023-03-10T04:41:20.285Z,81.40
2023-03-10T04:45:22.945Z,79.30
2023-03-10T04:48:58.614Z,79.30
2023-03-10T04:52:37.194Z,82.20
2023-03-10T04:55:45.932Z,82.10
2023-03-10T04:59:43.586Z,83.30
2023-03-10T05:03:21.309Z,84.70
2023-03-10T05:06:55.718Z,87.80
2023-03-10T05:10:48.766Z,94.70
2023-03-10T05:13:57.723Z,94.60
2023-03-10T05:17:26.733Z,93.10
2023-03-10T05:21:09.236Z,100.40
2023-03-10T05:24:18.434Z,98.90
2023-03-10T05:27:55.615Z,104.00
2023-03-10T05:31:29.963Z,94.90
2023-03-10T05:34:39.380Z,93.20
2023-03-10T05:37:57.707Z,106.50
2023-03-10T05:41:06.134Z,121.40
2023-03-10T05:44:22.373Z,114.70
2023-03-10T05:47:35.172Z,97.00
2023-03-10T05:50:57.076Z,102.20
2023-03-10T05:54:05.625Z,88.20
2023-03-10T05:56:54.830Z,101.80
2023-03-10T05:59:40.051Z,85.00
2023-03-10T06:03:11.543Z,86.40
2023-03-10T06:06:45.460Z,89.00
2023-03-10T06:09:43.476Z,93.60
2023-03-10T06:13:16.333Z,89.70
2023-03-10T06:16:52.956Z,86.40
2023-03-10T06:20:29.018Z,93.10
2023-03-10T06:23:38.267Z,97.80
2023-03-10T06:26:58.477Z,97.20
2023-03-10T06:30:04.052Z,91.60
2023-03-10T06:33:27.968Z,98.70
2023-03-10T06:37:31.983Z,94.20
2023-03-10T06:40:35.593Z,109.10
2023-03-10T06:43:57.190Z,114.50
2023-03-10T06:47:07.219Z,106.00
2023-03-10T06:50:35.065Z,113.90
2023-03-10T06:53:29.809Z,105.30
2023-03-10T06:56:53.248Z,114.10
2023-03-10T06:59:36.543Z,113.00
2023-03-10T07:02:59.502Z,116.70
2023-03-10T07:06:14.441Z,115.80
2023-03-10T07:09:59.264Z,119.20
2023-03-10T07:13:43.057Z,112.70
2023-03-10T07:17:19.669Z,115.80
2023-03-10T07:20:31.434Z,120.60
2023-03-10T07:24:03.644Z,108.40
2023-03-10T07:27:12.750Z,105.70
2023-03-10T07:29:56.226Z,109.30
2023-03-10T07:33:35.409Z,110.40
2023-03-10T07:37:19.373Z,110.00
2023-03-10T07:40:14.086Z,106.90
2023-03-10T07:43:20.287Z,107.80
2023-03-10T07:46:40.267Z,108.90
2023-03-10T07:49:54.945Z,107.20
2023-03-10T07:53:24.234Z,96.80
2023-03-10T07:56:37.841Z,98.00
2023-03-10T07:59:20.942Z,97.60
2023-03-10T08:02:39.452Z,93.50
2023-03-10T08:05:35.869Z,92.80
2023-03-10T08:08:27.315Z,90.70
2023-03-10T08:12:09.597Z,84.00
2023-03-10T08:15:11.122Z,80.60
2023-03-10T08:18:10.525Z,76.10
2023-03-10T08:21:17.379Z,73.50
2023-03-10T08:24:44.727Z,69.50
2023-03-10T08:27:37.196Z,80.60
2023-03-10T08:30:24.782Z,80.50
2023-03-10T08:33:22.306Z,70.60
2023-03-10T08:36:23.746Z,71.10
2023-03-10T08:39:34.462Z,59.00
2023-03-10T08:42:38.002Z,53.70
2023-03-10T08:45:33.443Z,51.90
2023-03-10T08:48:19.190Z,54.50
2023-03-10T08:51:05.927Z,45.70
2023-03-10T08:54:00.432Z,49.90
2023-03-10T08:56:44.081Z,46.30
2023-03-10T08:59:34.966Z,40.50
2023-03-10T09:02:38.409Z,42.00
2023-03-10T09:05:59.457Z,39.80
2023-03-10T09:08:51.766Z,34.30
2023-03-10T09:11:56.251Z,33.70
2023-03-10T09:15:12.466Z,28.60
2023-03-10T09:17:55.844Z,29.70
2023-03-10T09:20:42.569Z,27.70
2023-03-10T09:23:57.382Z,29.20
2023-03-10T09:27:08.701Z,28.10
2023-03-10T09:30:12.240Z,27.00
2023-03-10T09:33:00.701Z,25.90
2023-03-10T09:36:05.603Z,24.10
2023-03-10T09:38:49.484Z,25.60
2023-03-10T09:42:03.160Z,24.60
2023-03-10T09:45:17.568Z,26.30
2023-03-10T09:48:25.402Z,25.00
2023-03-10T09:51:28.624Z,24.90
2023-03-10T09:54:39.560Z,22.50
2023-03-10T09:57:27.605Z,24.60
2023-03-10T10:00:42.231Z,23.10
2023-03-10T10:03:52.067Z,20.80
2023-03-10T10:06:46.782Z,23.70
2023-03-10T10:09:45.168Z,20.80
2023-03-10T10:12:30.904Z,18.80
2023-03-10T10:15:35.302Z,17.60
2023-03-10T10:18:46.154Z,18.60
2023-03-10T10:21:43.288Z,17.80
2023-03-10T10:25:00.599Z,16.10
2023-03-10T10:27:45.615Z,14.70
2023-03-10T10:30:35.905Z,17.50
2023-03-10T10:33:19.033Z,17.90
2023-03-10T10:36:05.518Z,17.00
2023-03-10T10:38:54.575Z,15.10
2023-03-10T10:41:37.987Z,15.30
2023-03-10T10:44:21.558Z,14.40
2023-03-10T10:47:05.021Z,16.10
2023-03-10T10:49:48.247Z,11.80
2023-03-10T10:52:33.557Z,8.90
2023-03-10T10:55:34.860Z,13.50
2023-03-10T10:58:45.539Z,11.20
2023-03-10T11:01:55.561Z,14.90
2023-03-10T11:04:44.365Z,11.20
2023-03-10T11:07:27.629Z,8.70
2023-03-10T11:10:13.377Z,9.20
2023-03-10T11:13:22.746Z,8.90
2023-03-10T11:16:11.533Z,7.10
2023-03-10T11:19:08.500Z,10.10
2023-03-10T11:21:57.404Z,11.30
2023-03-10T11:24:54.746Z,12.40
2023-03-10T11:27:59.426Z,6.80
2023-03-10T11:31:07.232Z,7.10
2023-03-10T11:34:11.146Z,9.80
2023-03-10T11:37:03.305Z,6.80
2023-03-10T11:40:19.794Z,8.70
2023-03-10T11:43:28.484Z,6.10
2023-03-10T11:46:46.995Z,7.80
2023-03-10T11:49:38.060Z,7.60
2023-03-10T11:52:23.535Z,7.30
2023-03-10T11:55:20.332Z,7.40
2023-03-10T11:58:05.728Z,7.20
2023-03-10T12:00:52.743Z,9.50
2023-03-10T12:03:55.920Z,11.40
2023-03-10T12:06:57.733Z,5.70
2023-03-10T12:09:54.319Z,9.60
2023-03-10T12:12:39.829Z,7.30
2023-03-10T12:15:32.508Z,10.00
2023-03-10T12:23:59.762Z,8.40
2023-03-10T12:26:44.809Z,8.10
2023-03-10T12:29:45.926Z,6.70
2023-03-10T12:32:41.948Z,8.60
2023-03-10T12:35:45.238Z,8.90
2023-03-10T12:39:02.532Z,9.40
2023-03-10T12:41:53.258Z,8.80
2023-03-10T12:44:46.702Z,7.10
2023-03-10T12:47:34.646Z,7.80
2023-03-10T12:50:31.341Z,7.30
2023-03-10T12:53:34.160Z,9.10
2023-03-10T12:56:34.697Z,8.00
2023-03-10T12:59:29.890Z,6.30
2023-03-10T13:02:25.627Z,9.70
2023-03-10T13:05:20.616Z,8.30
2023-03-10T13:08:20.045Z,7.10
2023-03-10T13:11:16.252Z,5.70
2023-03-10T13:14:20.724Z,8.20
2023-03-10T13:17:04.515Z,9.20
2023-03-10T13:20:02.191Z,8.20
2023-03-10T13:22:57.422Z,8.90
2023-03-10T13:26:01.479Z,9.70
2023-03-10T13:28:55.753Z,5.60
2023-03-10T13:31:38.969Z,7.80
2023-03-10T13:34:27.630Z,5.80
2023-03-10T13:37:11.124Z,6.60
2023-03-10T13:40:07.554Z,8.20
2023-03-10T13:42:50.650Z,5.80
2023-03-10T13:45:36.249Z,8.60
2023-03-10T13:48:19.754Z,9.00
2023-03-10T13:51:23.479Z,11.40
2023-03-10T13:54:20.656Z,11.30
2023-03-10T13:57:33.356Z,10.10
2023-03-10T14:00:22.256Z,11.00
2023-03-10T14:03:08.851Z,7.30
2023-03-10T14:05:52.382Z,8.10
2023-03-10T14:08:38.688Z,7.80
2023-03-10T14:11:46.191Z,6.80
2023-03-10T14:14:45.330Z,5.80
2023-03-10T14:17:35.185Z,9.50
2023-03-10T14:20:39.306Z,9.10
2023-03-10T14:23:22.760Z,7.80
2023-03-10T14:26:14.282Z,9.90
2023-03-10T14:28:57.322Z,11.50
2023-03-10T14:31:51.378Z,10.50
2023-03-10T14:34:34.498Z,10.20
2023-03-10T14:37:17.565Z,11.80
2023-03-10T14:40:20.691Z,12.70
2023-03-10T14:43:06.185Z,11.10
2023-03-10T14:46:05.358Z,12.50
2023-03-10T14:48:48.590Z,11.10
2023-03-10T14:51:36.071Z,10.60
2023-03-10T14:54:22.822Z,10.50
2023-03-10T14:57:19.830Z,15.30
2023-03-10T15:00:04.370Z,10.70
2023-03-10T15:02:54.773Z,9.40
2023-03-10T15:05:48.296Z,12.70
2023-03-10T15:08:52.373Z,8.30
2023-03-10T15:11:44.614Z,6.40
2023-03-10T15:14:27.743Z,8.70
2023-03-10T15:17:12.780Z,5.00
2023-03-10T15:19:55.954Z,7.30
2023-03-10T15:22:39.274Z,6.60
2023-03-10T15:25:32.543Z,7.20
2023-03-10T15:28:15.698Z,5.40
2023-03-10T15:31:08.995Z,5.20
2023-03-10T15:33:52.147Z,7.70
2023-03-10T15:36:36.321Z,9.60
2023-03-10T15:39:30.950Z,5.00
2023-03-10T15:42:14.945Z,5.60
2023-03-10T15:45:05.133Z,6.20
2023-03-10T15:47:49.000Z,7.70
2023-03-10T15:50:32.049Z,4.80
2023-03-10T15:53:15.328Z,7.50
2023-03-10T15:56:07.701Z,7.70
2023-03-10T15:58:50.792Z,9.40
2023-03-10T16:01:36.845Z,10.70
2023-03-10T16:04:20.539Z,8.30
2023-03-10T16:07:04.884Z,11.00
2023-03-10T16:09:48.127Z,13.40
2023-03-10T16:12:32.051Z,16.70
2023-03-10T16:15:18.580Z,12.20
2023-03-10T16:18:02.005Z,14.60
2023-03-10T16:21:04.113Z,16.90
2023-03-10T16:23:59.584Z,11.10
2023-03-10T16:26:44.703Z,9.10
2023-03-10T16:29:30.842Z,10.00
2023-03-10T16:32:15.024Z,12.10
2023-03-10T16:35:00.008Z,15.10
2023-03-10T16:37:43.791Z,18.30
2023-03-10T16:40:26.816Z,18.10
2023-03-10T16:43:12.407Z,33.20
2023-03-10T16:46:07.144Z,36.50
2023-03-10T16:48:50.392Z,44.80
2023-03-10T16:51:37.791Z,40.00
2023-03-10T16:54:22.254Z,34.60
2023-03-10T16:57:07.876Z,31.20
2023-03-10T16:59:51.116Z,32.60
2023-03-10T17:02:34.154Z,33.00
2023-03-10T17:05:17.990Z,34.90
2023-03-10T17:08:06.093Z,30.40
2023-03-10T17:10:49.284Z,32.50
2023-03-10T17:13:33.156Z,31.50
2023-03-10T17:16:18.143Z,31.40
2023-03-10T17:19:14.498Z,27.10
2023-03-10T17:22:16.663Z,29.20
2023-03-10T17:25:00.760Z,25.70
2023-03-10T17:27:55.019Z,27.90
2023-03-10T17:30:41.422Z,30.20
2023-03-10T17:33:45.059Z,34.60
2023-03-10T17:36:28.641Z,36.00
2023-03-10T17:39:19.808Z,31.00
2023-03-10T17:42:03.555Z,35.50
2023-03-10T17:44:55.461Z,31.10
2023-03-10T17:47:38.703Z,32.10
2023-03-10T17:50:33.684Z,29.40
2023-03-10T17:53:20.362Z,28.20
2023-03-10T17:56:07.265Z,29.30
2023-03-10T17:58:56.826Z,30.80
2023-03-10T18:01:41.134Z,30.90
2023-03-10T18:04:29.622Z,29.90
2023-03-10T18:07:23.430Z,40.40
2023-03-10T18:10:13.001Z,40.50
2023-03-10T18:13:14.978Z,44.60
2023-03-10T18:16:21.833Z,40.10
2023-03-10T18:19:10.432Z,46.70
2023-03-10T18:22:08.093Z,46.70
2023-03-10T18:25:05.939Z,34.00
2023-03-10T18:28:15.283Z,34.10
2023-03-10T18:31:40.472Z,37.60
2023-03-10T18:34:25.853Z,36.80
2023-03-10T18:37:09.129Z,39.70
2023-03-10T18:39:52.526Z,34.20
2023-03-10T18:42:46.046Z,37.70
2023-03-10T18:45:44.563Z,38.70
2023-03-10T18:48:28.680Z,38.50
2023-03-10T18:51:13.564Z,40.10
2023-03-10T18:53:56.906Z,37.40
2023-03-10T18:57:01.761Z,39.20
2023-03-10T18:59:55.671Z,50.00
2023-03-10T19:02:42.426Z,50.70
2023-03-10T19:05:40.811Z,74.00
2023-03-10T19:08:25.652Z,86.60
2023-03-10T19:11:18.063Z,80.50
2023-03-10T19:14:13.565Z,81.10
2023-03-10T19:17:04.196Z,79.30
2023-03-10T19:19:50.497Z,77.90
2023-03-10T19:22:35.028Z,82.40
2023-03-10T19:25:19.787Z,73.80
2023-03-10T19:28:23.421Z,74.40
2023-03-10T19:31:23.816Z,81.20
2023-03-10T19:34:37.529Z,65.90
2023-03-10T19:37:22.123Z,67.10
2023-03-10T19:40:19.224Z,72.30
2023-03-10T19:43:26.604Z,70.20
2023-03-10T19:46:21.122Z,74.60
2023-03-10T19:49:24.740Z,67.40
2023-03-10T19:52:07.898Z,63.90
2023-03-10T19:55:11.002Z,67.60
2023-03-10T19:57:56.126Z,67.40
2023-03-10T20:00:49.746Z,68.00
2023-03-10T20:03:34.212Z,73.80
2023-03-10T20:06:17.799Z,74.10
2023-03-10T20:09:24.684Z,65.10
2023-03-10T20:12:36.143Z,67.40
2023-03-10T20:15:28.782Z,68.30
2023-03-10T20:18:12.140Z,61.30
2023-03-10T20:21:12.243Z,65.40
2023-03-10T20:23:56.406Z,68.60
2023-03-10T20:27:09.896Z,63.10
2023-03-10T20:29:52.968Z,62.80
2023-03-10T20:33:01.901Z,65.60
2023-03-10T20:35:56.265Z,64.00
2023-03-10T20:39:14.173Z,66.00
2023-03-10T20:42:57.819Z,63.60
2023-03-10T20:46:01.130Z,62.30
2023-03-10T20:48:59.179Z,61.50
2023-03-10T20:51:42.438Z,59.90
2023-03-10T20:54:45.918Z,65.80
2023-03-10T20:57:49.605Z,64.10
2023-03-10T21:00:35.886Z,60.50
2023-03-10T21:03:27.236Z,58.10
2023-03-10T21:06:27.549Z,66.80
2023-03-10T21:09:20.946Z,65.30
2023-03-10T21:12:06.761Z,62.10
2023-03-10T21:14:49.849Z,62.90
2023-03-10T21:17:42.066Z,62.40
2023-03-10T21:20:54.526Z,59.80
2023-03-10T21:23:38.603Z,60.20
2023-03-10T21:26:40.652Z,60.90
2023-03-10T21:29:41.618Z,55.10
2023-03-10T21:32:56.875Z,68.40
2023-03-10T21:35:43.279Z,60.00
2023-03-10T21:38:37.721Z,71.00
2023-03-10T21:41:30.489Z,78.80
2023-03-10T21:44:13.649Z,70.50
2023-03-10T21:47:20.723Z,73.50
2023-03-10T21:50:16.401Z,83.30
2023-03-10T21:53:02.205Z,64.30
2023-03-10T21:56:05.845Z,76.10
2023-03-10T21:59:10.515Z,112.80
2023-03-10T22:01:56.863Z,118.20
2023-03-10T22:04:48.978Z,116.60
2023-03-10T22:07:53.192Z,100.90
2023-03-10T22:10:46.740Z,109.70
2023-03-10T22:13:44.348Z,104.30
2023-03-10T22:16:27.882Z,102.30
2023-03-10T22:19:13.412Z,100.70
2023-03-10T22:21:59.565Z,89.30
2023-03-10T22:24:48.557Z,93.30
2023-03-10T22:27:31.528Z,80.00
2023-03-10T22:30:14.681Z,75.00
2023-03-10T22:32:58.457Z,74.40
2023-03-10T22:35:41.570Z,66.90
2023-03-10T22:38:27.664Z,63.40
2023-03-10T22:41:12.181Z,64.70
2023-03-10T22:43:58.322Z,63.50
2023-03-10T22:46:46.171Z,55.70
2023-03-10T22:49:29.657Z,56.20
2023-03-10T22:52:26.056Z,53.40
2023-03-10T22:55:16.730Z,58.00
2023-03-10T22:58:07.239Z,49.20
2023-03-10T23:00:50.478Z,49.10
2023-03-10T23:03:44.748Z,42.80
2023-03-10T23:06:35.637Z,47.00
2023-03-10T23:09:18.798Z,43.70
2023-03-10T23:12:06.958Z,39.30
2023-03-10T23:15:24.079Z,40.90
2023-03-10T23:18:08.571Z,36.70
2023-03-10T23:20:53.028Z,36.50
2023-03-10T23:23:36.246Z,32.70
2023-03-10T23:26:22.348Z,30.90
2023-03-10T23:29:05.342Z,30.60
2023-03-10T23:31:48.673Z,27.50
2023-03-10T23:34:32.403Z,25.30
2023-03-10T23:37:26.746Z,24.80
2023-03-10T23:40:13.687Z,24.70
2023-03-10T23:43:08.179Z,23.50
2023-03-10T23:46:01.836Z,25.70
2023-03-10T23:48:48.346Z,27.70
2023-03-10T23:51:31.402Z,25.00
2023-03-10T23:54:15.262Z,23.80
2023-03-10T23:57:00.768Z,27.00
